BIKL weather

Kirkjub├Žjarklaustur Airport
Kirkjub├Žjarklaustur, Southern Region, Iceland

Public forecast

Using degrees Celsius for public forecast. Weather courtesy of forecast.io.

METAR (pilot weather report)

Report is more than 6 hours old.

Closest report is Vestmannaeyjar Airport, 64.6 nm (119.7 km) WSW. Retrieved 2019/04/18 18:00 UTC (14 hours ago):

BIVM 181800Z 14024KT 0300 -RADZ FG VCSH VV000 07/07 Q1007

TAF (pilot weather forecast)

Closest forecast is Reykjavik Airport, 105.8 nm (195.9 km) WNW. Retrieved 2019/04/19 09:40 UTC (0 seconds ago):

TAF BIRK 190735Z 1909/2009 14022G32KT 9999 -RA BKN018 OVC025 TX10/1915Z TN05/2006Z TEMPO 1909/1914 5000 RADZ BR BKN010 OVC015 BECMG 1914/1917 19018KT 9999 -SHRA SCT015 BKN025 TEMPO 1915/2009 5000 SHRA BKN012 OVC020